createdAt,value
2023-02-11T00:01:22.252Z,4.80
2023-02-11T00:03:49.121Z,4.60
2023-02-11T00:06:16.473Z,4.80
2023-02-11T00:08:43.175Z,4.60
2023-02-11T00:11:14.772Z,4.60
2023-02-11T00:13:42.763Z,4.50
2023-02-11T00:16:12.535Z,4.50
2023-02-11T00:18:39.363Z,4.60
2023-02-11T00:21:08.530Z,4.60
2023-02-11T00:23:35.678Z,4.60
2023-02-11T00:26:02.631Z,4.40
2023-02-11T00:28:29.467Z,4.30
2023-02-11T00:31:04.476Z,4.40
2023-02-11T00:33:31.271Z,4.40
2023-02-11T00:35:59.111Z,4.40
2023-02-11T00:38:25.959Z,4.30
2023-02-11T00:40:52.796Z,4.40
2023-02-11T00:43:19.648Z,4.50
2023-02-11T00:45:46.611Z,4.10
2023-02-11T00:48:13.360Z,4.30
2023-02-11T00:50:40.249Z,4.30
2023-02-11T00:53:07.469Z,4.40
2023-02-11T00:55:34.391Z,0.00
2023-02-11T00:58:01.417Z,4.50
2023-02-11T01:00:28.465Z,4.30
2023-02-11T01:06:17.468Z,4.50
2023-02-11T01:08:44.429Z,4.40
2023-02-11T01:11:14.716Z,4.40
2023-02-11T01:13:42.478Z,4.30
2023-02-11T01:16:10.922Z,4.40
2023-02-11T01:18:56.018Z,4.40
2023-02-11T01:21:22.722Z,4.20
2023-02-11T01:23:49.505Z,4.40
2023-02-11T01:26:16.637Z,4.30
2023-02-11T01:28:43.565Z,4.30
2023-02-11T01:31:10.605Z,4.20
2023-02-11T01:33:37.364Z,4.40
2023-02-11T01:36:06.085Z,4.30
2023-02-11T01:38:33.604Z,4.10
2023-02-11T01:41:06.795Z,4.10
2023-02-11T01:43:40.704Z,4.20
2023-02-11T01:46:14.035Z,4.00
2023-02-11T01:48:48.843Z,4.20
2023-02-11T01:51:18.346Z,4.10
2023-02-11T01:54:05.948Z,4.20
2023-02-11T01:56:55.771Z,4.10
2023-02-11T01:59:32.127Z,4.10
2023-02-11T02:02:03.714Z,4.10
2023-02-11T02:04:38.422Z,4.00
2023-02-11T02:07:32.922Z,4.10
2023-02-11T02:10:07.512Z,4.10
2023-02-11T02:12:34.294Z,4.20
2023-02-11T02:15:24.717Z,4.00
2023-02-11T02:18:01.070Z,4.00
2023-02-11T02:20:55.243Z,4.00
2023-02-11T02:23:59.217Z,4.00
2023-02-11T02:26:43.884Z,3.90
2023-02-11T02:29:40.364Z,4.00
2023-02-11T02:32:17.543Z,0.00
2023-02-11T02:35:15.582Z,4.00
2023-02-11T02:38:11.467Z,4.00
2023-02-11T02:40:52.689Z,4.00
2023-02-11T02:43:20.229Z,4.00
2023-02-11T02:45:46.968Z,4.00
2023-02-11T02:48:43.786Z,3.90
2023-02-11T02:51:23.166Z,3.90
2023-02-11T02:54:04.134Z,4.10
2023-02-11T02:56:54.522Z,4.00
2023-02-11T02:59:33.067Z,3.90
2023-02-11T03:02:22.146Z,4.00
2023-02-11T03:04:53.537Z,3.90
2023-02-11T03:07:26.147Z,4.00
2023-02-11T03:09:59.888Z,3.90
2023-02-11T03:12:28.292Z,4.00
2023-02-11T03:14:55.300Z,3.70
2023-02-11T03:17:25.560Z,4.00
2023-02-11T03:19:52.380Z,3.90
2023-02-11T03:22:30.479Z,3.80
2023-02-11T03:24:57.201Z,3.70
2023-02-11T03:27:41.472Z,3.80
2023-02-11T03:30:12.343Z,3.70
2023-02-11T03:32:43.994Z,3.80
2023-02-11T03:35:35.291Z,3.70
2023-02-11T03:38:21.770Z,3.60
2023-02-11T03:40:49.032Z,3.80
2023-02-11T03:43:20.467Z,3.70
2023-02-11T03:45:51.123Z,3.70
2023-02-11T03:48:30.051Z,3.60
2023-02-11T03:50:58.573Z,3.60
2023-02-11T03:53:25.400Z,3.80
2023-02-11T03:55:54.720Z,3.80
2023-02-11T03:58:21.621Z,3.60
2023-02-11T04:00:48.508Z,3.50
2023-02-11T04:03:15.316Z,3.50
2023-02-11T04:05:42.137Z,3.70
2023-02-11T04:08:09.154Z,3.70
2023-02-11T04:10:35.913Z,3.70
2023-02-11T04:13:02.854Z,3.50
2023-02-11T04:15:29.615Z,3.50
2023-02-11T04:17:56.343Z,3.50
2023-02-11T04:20:23.117Z,3.40
2023-02-11T04:22:49.901Z,3.40
2023-02-11T04:25:16.743Z,3.50
2023-02-11T04:27:43.672Z,3.30
2023-02-11T04:30:10.909Z,3.40
2023-02-11T04:32:37.722Z,3.20
2023-02-11T04:35:04.914Z,3.30
2023-02-11T04:37:31.722Z,3.50
2023-02-11T04:39:58.504Z,3.50
2023-02-11T04:42:25.364Z,3.30
2023-02-11T04:44:52.148Z,3.10
2023-02-11T04:47:19.307Z,3.10
2023-02-11T04:49:46.150Z,3.00
2023-02-11T04:52:12.956Z,3.10
2023-02-11T04:54:39.883Z,3.10
2023-02-11T04:57:06.846Z,3.10
2023-02-11T04:59:33.634Z,2.90
2023-02-11T05:02:00.449Z,2.90
2023-02-11T05:04:27.354Z,2.70
2023-02-11T05:06:54.619Z,2.70
2023-02-11T05:09:22.026Z,3.00
2023-02-11T05:11:48.796Z,2.90
2023-02-11T05:14:15.557Z,3.00
2023-02-11T05:16:42.358Z,3.00
2023-02-11T05:19:09.152Z,3.10
2023-02-11T05:21:35.926Z,3.00
2023-02-11T05:24:02.738Z,3.10
2023-02-11T05:26:29.578Z,3.10
2023-02-11T05:28:56.608Z,3.10
2023-02-11T05:31:23.397Z,3.00
2023-02-11T05:33:50.125Z,3.10
2023-02-11T05:36:17.146Z,3.20
2023-02-11T05:38:44.066Z,3.30
2023-02-11T05:41:11.471Z,3.10
2023-02-11T05:43:38.295Z,3.00
2023-02-11T05:46:05.815Z,3.00
2023-02-11T05:48:32.495Z,3.20
2023-02-11T05:50:59.130Z,3.20
2023-02-11T05:53:25.781Z,3.00
2023-02-11T05:55:52.730Z,3.00
2023-02-11T05:58:19.694Z,3.00
2023-02-11T06:00:46.506Z,3.00
2023-02-11T06:03:13.297Z,3.00
2023-02-11T06:05:40.153Z,3.00
2023-02-11T06:08:06.932Z,2.90
2023-02-11T06:10:33.788Z,3.10
2023-02-11T06:13:01.934Z,2.90
2023-02-11T06:15:29.195Z,2.80
2023-02-11T06:17:56.345Z,2.90
2023-02-11T06:20:23.057Z,2.70
2023-02-11T06:22:49.843Z,2.70
2023-02-11T06:25:16.828Z,2.90
2023-02-11T06:27:43.771Z,2.90
2023-02-11T06:30:11.424Z,2.80
2023-02-11T06:32:46.129Z,2.80
2023-02-11T06:35:14.621Z,2.80
2023-02-11T06:37:42.360Z,2.60
2023-02-11T06:40:10.009Z,2.70
2023-02-11T06:42:39.162Z,2.60
2023-02-11T06:45:08.985Z,2.60
2023-02-11T06:47:35.763Z,2.80
2023-02-11T06:50:02.647Z,2.90
2023-02-11T06:52:29.495Z,2.90
2023-02-11T06:54:56.320Z,2.80
2023-02-11T06:57:23.131Z,3.10
2023-02-11T06:59:49.939Z,3.10
2023-02-11T07:02:19.076Z,3.00
2023-02-11T07:04:47.561Z,2.90
2023-02-11T07:07:14.446Z,3.20
2023-02-11T07:09:41.527Z,3.10
2023-02-11T07:12:10.431Z,0.00
2023-02-11T07:14:37.283Z,3.00
2023-02-11T07:17:04.853Z,3.00
2023-02-11T07:19:32.085Z,3.10
2023-02-11T07:21:58.899Z,3.00
2023-02-11T07:24:25.681Z,3.10
2023-02-11T07:26:53.749Z,3.10
2023-02-11T07:29:20.578Z,3.30
2023-02-11T07:31:47.532Z,3.60
2023-02-11T07:34:14.473Z,3.30
2023-02-11T07:36:43.640Z,3.60
2023-02-11T07:39:10.442Z,3.60
2023-02-11T07:41:38.274Z,3.50
2023-02-11T07:44:05.458Z,3.50
2023-02-11T07:46:32.814Z,3.60
2023-02-11T07:48:59.523Z,3.80
2023-02-11T07:51:27.551Z,3.70
2023-02-11T07:53:55.971Z,3.80
2023-02-11T07:56:23.589Z,3.80
2023-02-11T07:58:50.836Z,3.90
2023-02-11T08:01:22.607Z,4.00
2023-02-11T08:03:49.474Z,3.90
2023-02-11T08:06:20.279Z,4.10
2023-02-11T08:08:47.795Z,4.30
2023-02-11T08:11:23.513Z,4.30
2023-02-11T08:13:50.978Z,4.20
2023-02-11T08:16:27.802Z,4.30
2023-02-11T08:18:57.697Z,4.50
2023-02-11T08:21:25.150Z,4.60
2023-02-11T08:23:52.741Z,4.40
2023-02-11T08:26:21.788Z,4.40
2023-02-11T08:28:50.065Z,4.70
2023-02-11T08:31:22.576Z,4.60
2023-02-11T08:33:50.216Z,4.50
2023-02-11T08:36:20.349Z,4.80
2023-02-11T08:38:47.115Z,4.90
2023-02-11T08:41:14.973Z,4.80
2023-02-11T08:43:42.638Z,5.00
2023-02-11T08:46:14.687Z,4.90
2023-02-11T08:48:41.921Z,5.10
2023-02-11T08:51:11.705Z,5.20
2023-02-11T08:53:39.201Z,5.20
2023-02-11T08:56:06.602Z,5.30
2023-02-11T08:58:33.501Z,5.10
2023-02-11T09:01:00.267Z,5.20
2023-02-11T09:03:27.154Z,5.30
2023-02-11T09:05:54.812Z,5.50
2023-02-11T09:08:21.652Z,5.60
2023-02-11T09:10:49.065Z,5.50
2023-02-11T09:13:16.953Z,5.60
2023-02-11T09:15:46.946Z,5.50
2023-02-11T09:18:14.225Z,5.70
2023-02-11T09:20:40.934Z,5.80
2023-02-11T09:23:07.837Z,0.00
2023-02-11T09:25:34.928Z,5.60
2023-02-11T09:28:02.044Z,5.70
2023-02-11T09:30:29.185Z,5.80
2023-02-11T09:32:56.231Z,5.90
2023-02-11T09:35:23.318Z,6.00
2023-02-11T09:37:50.255Z,6.00
2023-02-11T09:40:18.626Z,6.10
2023-02-11T09:43:04.007Z,6.20
2023-02-11T09:45:32.301Z,6.20
2023-02-11T09:48:10.481Z,6.20
2023-02-11T09:50:42.883Z,6.30
2023-02-11T09:53:35.420Z,6.20
2023-02-11T09:56:10.431Z,6.30
2023-02-11T09:58:40.337Z,6.40
2023-02-11T10:01:21.730Z,6.30
2023-02-11T10:04:25.558Z,6.50
2023-02-11T10:06:56.486Z,6.50
2023-02-11T10:09:41.531Z,6.60
2023-02-11T10:12:39.152Z,6.60
2023-02-11T10:15:25.902Z,6.80
2023-02-11T10:18:07.778Z,6.80
2023-02-11T10:20:46.407Z,6.80
2023-02-11T10:23:22.156Z,6.80
2023-02-11T10:25:54.502Z,6.80
2023-02-11T10:28:24.696Z,6.80
2023-02-11T10:31:03.763Z,6.90
2023-02-11T10:33:56.810Z,6.80
2023-02-11T10:36:33.031Z,7.00
2023-02-11T10:39:18.510Z,6.90
2023-02-11T10:41:50.304Z,7.10
2023-02-11T10:44:28.671Z,7.10
2023-02-11T10:46:57.491Z,7.10
2023-02-11T10:49:42.205Z,7.10
2023-02-11T10:52:27.458Z,7.20
2023-02-11T10:54:57.827Z,7.20
2023-02-11T10:57:34.754Z,7.10
2023-02-11T11:00:38.946Z,7.10
2023-02-11T11:03:31.162Z,7.10
2023-02-11T11:06:00.968Z,7.30
2023-02-11T11:08:54.126Z,7.40
2023-02-11T11:11:23.607Z,7.50
2023-02-11T11:13:53.144Z,7.60
2023-02-11T11:16:32.478Z,7.80
2023-02-11T11:19:08.396Z,8.00
2023-02-11T11:21:45.252Z,8.30
2023-02-11T11:24:39.936Z,8.20
2023-02-11T11:27:07.412Z,8.30
2023-02-11T11:29:49.426Z,8.50
2023-02-11T11:32:24.307Z,8.40
2023-02-11T11:34:56.773Z,8.60
2023-02-11T11:37:29.303Z,8.90
2023-02-11T11:40:21.889Z,8.70
2023-02-11T11:43:02.668Z,8.70
2023-02-11T11:45:29.461Z,8.60
2023-02-11T11:48:24.699Z,8.80
2023-02-11T11:50:59.544Z,8.80
2023-02-11T11:53:41.229Z,8.80
2023-02-11T11:56:36.049Z,8.90
2023-02-11T11:59:11.326Z,8.90
2023-02-11T12:01:52.902Z,8.90
2023-02-11T12:04:52.762Z,9.00
2023-02-11T12:07:26.109Z,9.00
2023-02-11T12:10:10.012Z,9.10
2023-02-11T12:12:51.629Z,9.10
2023-02-11T12:15:39.710Z,9.20
2023-02-11T12:18:24.448Z,9.10
2023-02-11T12:21:22.443Z,9.20
2023-02-11T12:24:29.531Z,9.20
2023-02-11T12:27:14.953Z,9.30
2023-02-11T12:29:51.053Z,9.20
2023-02-11T12:32:23.667Z,9.00
2023-02-11T12:35:15.926Z,8.80
2023-02-11T12:38:10.639Z,8.70
2023-02-11T12:40:54.400Z,9.00
2023-02-11T12:43:24.876Z,9.20
2023-02-11T12:46:10.959Z,9.40
2023-02-11T12:49:02.335Z,9.50
2023-02-11T12:51:50.104Z,9.70
2023-02-11T12:55:10.457Z,9.70
2023-02-11T12:57:40.423Z,9.90
2023-02-11T13:00:17.256Z,10.00
2023-02-11T13:03:09.709Z,10.10
2023-02-11T13:06:02.032Z,10.00
2023-02-11T13:08:48.741Z,10.10
2023-02-11T13:11:21.424Z,10.20
2023-02-11T13:14:26.563Z,10.30
2023-02-11T13:16:54.162Z,10.20
2023-02-11T13:19:35.893Z,10.10
2023-02-11T13:22:20.036Z,10.10
2023-02-11T13:25:01.851Z,10.10
2023-02-11T13:27:58.926Z,10.20
2023-02-11T13:30:36.739Z,10.20
2023-02-11T13:33:06.687Z,10.30
2023-02-11T13:35:40.948Z,10.40
2023-02-11T13:38:21.841Z,10.40
2023-02-11T13:41:05.346Z,10.50
2023-02-11T13:43:34.613Z,10.60
2023-02-11T13:46:10.134Z,10.70
2023-02-11T13:48:49.224Z,10.80
2023-02-11T13:51:34.722Z,10.80
2023-02-11T13:54:02.502Z,10.90
2023-02-11T13:56:33.891Z,10.80
2023-02-11T13:59:04.561Z,10.80
2023-02-11T14:02:12.405Z,10.90
2023-02-11T14:05:20.813Z,10.90
2023-02-11T14:08:24.355Z,10.90
2023-02-11T14:11:14.392Z,10.80
2023-02-11T14:13:53.075Z,10.90
2023-02-11T14:16:37.366Z,10.90
2023-02-11T14:19:06.244Z,0.00
2023-02-11T14:21:39.470Z,10.90
2023-02-11T14:24:07.032Z,10.90
2023-02-11T14:26:52.041Z,10.80
2023-02-11T14:29:31.813Z,10.80
2023-02-11T14:32:05.982Z,10.90
2023-02-11T14:35:10.485Z,10.80
2023-02-11T14:38:11.502Z,10.80
2023-02-11T14:40:49.470Z,10.90
2023-02-11T14:43:24.349Z,10.80
2023-02-11T14:45:55.191Z,11.00
2023-02-11T14:48:36.899Z,10.90
2023-02-11T14:51:03.704Z,10.90
2023-02-11T14:53:32.986Z,10.90
2023-02-11T14:55:59.986Z,10.90
2023-02-11T14:58:27.931Z,10.90
2023-02-11T15:01:01.270Z,10.90
2023-02-11T15:03:31.129Z,11.00
2023-02-11T15:06:16.455Z,11.00
2023-02-11T15:08:48.358Z,11.00
2023-02-11T15:11:19.371Z,10.90
2023-02-11T15:13:50.344Z,10.90
2023-02-11T15:16:28.749Z,10.90
2023-02-11T15:19:07.181Z,10.90
2023-02-11T15:21:35.895Z,10.80
2023-02-11T15:24:06.104Z,10.80
2023-02-11T15:26:33.461Z,10.90
2023-02-11T15:29:00.321Z,10.80
2023-02-11T15:31:28.511Z,10.80
2023-02-11T15:33:55.606Z,10.80
2023-02-11T15:36:28.474Z,10.80
2023-02-11T15:39:17.369Z,10.70
2023-02-11T15:41:44.638Z,10.60
2023-02-11T15:44:32.522Z,10.60
2023-02-11T15:46:59.971Z,10.60
2023-02-11T15:49:27.172Z,10.60
2023-02-11T15:51:56.986Z,10.50
2023-02-11T15:54:29.437Z,10.50
2023-02-11T15:57:04.808Z,10.50
2023-02-11T15:59:41.438Z,10.50
2023-02-11T16:02:31.662Z,10.40
2023-02-11T16:05:05.202Z,10.40
2023-02-11T16:07:49.869Z,10.40
2023-02-11T16:10:25.957Z,10.30
2023-02-11T16:13:07.908Z,10.20
2023-02-11T16:15:34.713Z,10.20
2023-02-11T16:18:03.944Z,10.20
2023-02-11T16:20:30.976Z,10.20
2023-02-11T16:22:57.963Z,10.10
2023-02-11T16:25:24.762Z,10.10
2023-02-11T16:27:53.437Z,10.10
2023-02-11T16:30:34.363Z,10.10
2023-02-11T16:33:01.550Z,10.10
2023-02-11T16:35:28.383Z,10.00
2023-02-11T16:37:55.471Z,9.90
2023-02-11T16:40:23.612Z,9.90
2023-02-11T16:42:52.413Z,9.90
2023-02-11T16:45:19.374Z,9.90
2023-02-11T16:47:46.589Z,9.80
2023-02-11T16:50:22.393Z,9.80
2023-02-11T16:52:49.334Z,9.80
2023-02-11T16:55:16.396Z,9.70
2023-02-11T16:57:43.126Z,9.70
2023-02-11T17:00:15.504Z,9.70
2023-02-11T17:02:42.372Z,9.60
2023-02-11T17:05:17.632Z,9.40
2023-02-11T17:07:44.411Z,9.30
2023-02-11T17:10:19.533Z,9.40
2023-02-11T17:12:47.909Z,9.30
2023-02-11T17:15:14.807Z,9.30
2023-02-11T17:17:41.684Z,9.20
2023-02-11T17:20:11.755Z,9.20
2023-02-11T17:22:38.483Z,9.20
2023-02-11T17:25:06.675Z,9.20
2023-02-11T17:27:33.493Z,9.20
2023-02-11T17:30:00.559Z,9.20
2023-02-11T17:32:27.177Z,9.10
2023-02-11T17:34:54.496Z,9.10
2023-02-11T17:37:21.320Z,9.10
2023-02-11T17:39:49.365Z,9.00
2023-02-11T17:42:16.640Z,9.10
2023-02-11T17:44:44.358Z,9.10
2023-02-11T17:47:11.700Z,9.10
2023-02-11T17:49:39.336Z,9.10
2023-02-11T17:52:06.229Z,9.10
2023-02-11T17:54:33.006Z,9.10
2023-02-11T17:56:59.789Z,9.10
2023-02-11T17:59:28.402Z,9.00
2023-02-11T18:01:55.124Z,9.10
2023-02-11T18:04:22.138Z,9.00
2023-02-11T18:06:50.216Z,8.90
2023-02-11T18:09:16.940Z,8.90
2023-02-11T18:11:43.763Z,8.90
2023-02-11T18:14:11.137Z,8.90
2023-02-11T18:16:40.257Z,8.90
2023-02-11T18:19:07.894Z,8.80
2023-02-11T18:21:34.771Z,8.80
2023-02-11T18:24:06.452Z,8.60
2023-02-11T18:26:33.911Z,8.70
2023-02-11T18:29:00.667Z,8.60
2023-02-11T18:31:28.394Z,8.60
2023-02-11T18:33:55.740Z,8.50
2023-02-11T18:36:22.937Z,8.50
2023-02-11T18:38:50.044Z,8.50
2023-02-11T18:41:16.765Z,8.40
2023-02-11T18:43:43.825Z,8.50
2023-02-11T18:46:12.207Z,8.30
2023-02-11T18:48:39.680Z,8.30
2023-02-11T18:51:15.115Z,8.20
2023-02-11T18:53:42.566Z,8.40
2023-02-11T18:56:15.511Z,8.20
2023-02-11T18:58:42.370Z,8.10
2023-02-11T19:01:18.226Z,8.10
2023-02-11T19:03:45.594Z,8.10
2023-02-11T19:06:22.040Z,8.20
2023-02-11T19:08:48.877Z,7.90
2023-02-11T19:11:17.932Z,7.90
2023-02-11T19:13:47.638Z,8.10
2023-02-11T19:16:16.824Z,7.90
2023-02-11T19:18:43.659Z,7.80
2023-02-11T19:21:11.810Z,7.90
2023-02-11T19:23:38.945Z,7.90
2023-02-11T19:26:06.420Z,8.00
2023-02-11T19:28:34.136Z,7.90
2023-02-11T19:31:08.826Z,7.70
2023-02-11T19:33:35.748Z,7.80
2023-02-11T19:36:07.706Z,7.80
2023-02-11T19:38:35.332Z,7.70
2023-02-11T19:41:02.185Z,7.80
2023-02-11T19:43:28.944Z,7.70
2023-02-11T19:45:56.650Z,7.70
2023-02-11T19:48:24.888Z,7.70
2023-02-11T19:50:51.874Z,7.70
2023-02-11T19:53:18.710Z,7.70
2023-02-11T19:55:45.583Z,7.60
2023-02-11T19:58:12.408Z,7.60
2023-02-11T20:00:39.280Z,7.60
2023-02-11T20:03:06.164Z,7.40
2023-02-11T20:05:33.442Z,7.70
2023-02-11T20:08:00.448Z,7.60
2023-02-11T20:10:27.198Z,7.60
2023-02-11T20:12:54.315Z,7.50
2023-02-11T20:15:21.150Z,7.60
2023-02-11T20:17:47.982Z,7.60
2023-02-11T20:20:15.021Z,7.50
2023-02-11T20:22:41.839Z,7.30
2023-02-11T20:25:10.796Z,7.40
2023-02-11T20:27:37.875Z,7.30
2023-02-11T20:30:04.773Z,7.30
2023-02-11T20:32:37.760Z,7.50
2023-02-11T20:35:07.201Z,7.40
2023-02-11T20:37:34.630Z,0.00
2023-02-11T20:40:01.453Z,7.20
2023-02-11T20:42:28.313Z,7.20
2023-02-11T20:44:55.147Z,7.10
2023-02-11T20:47:22.711Z,7.20
2023-02-11T20:49:49.694Z,7.20
2023-02-11T20:52:16.710Z,7.00
2023-02-11T20:54:43.528Z,7.20
2023-02-11T20:57:10.280Z,7.00
2023-02-11T20:59:37.104Z,7.10
2023-02-11T21:02:03.980Z,7.10
2023-02-11T21:04:32.523Z,7.10
2023-02-11T21:07:01.702Z,7.00
2023-02-11T21:09:31.453Z,7.00
2023-02-11T21:11:58.394Z,6.90
2023-02-11T21:14:26.554Z,7.00
2023-02-11T21:16:53.506Z,7.00
2023-02-11T21:19:23.704Z,6.70
2023-02-11T21:21:50.488Z,6.90
2023-02-11T21:24:17.368Z,6.80
2023-02-11T21:26:44.210Z,6.70
2023-02-11T21:29:11.864Z,7.00
2023-02-11T21:31:39.159Z,6.80
2023-02-11T21:34:07.022Z,6.80
2023-02-11T21:36:34.424Z,6.80
2023-02-11T21:39:03.708Z,6.70
2023-02-11T21:41:30.819Z,6.80
2023-02-11T21:43:57.881Z,6.70
2023-02-11T21:46:24.774Z,6.70
2023-02-11T21:48:52.156Z,6.70
2023-02-11T21:51:24.733Z,6.70
2023-02-11T21:53:56.734Z,6.60
2023-02-11T21:56:26.303Z,6.80
2023-02-11T21:58:54.526Z,6.70
2023-02-11T22:01:25.029Z,6.70
2023-02-11T22:03:52.107Z,6.60
2023-02-11T22:06:21.911Z,6.40
2023-02-11T22:08:49.801Z,6.50
2023-02-11T22:11:16.636Z,6.40
2023-02-11T22:13:43.796Z,6.60
2023-02-11T22:16:12.337Z,6.50
2023-02-11T22:18:39.596Z,6.40
2023-02-11T22:21:07.555Z,0.00
2023-02-11T22:23:34.993Z,6.40
2023-02-11T22:26:22.184Z,6.50
2023-02-11T22:28:50.030Z,6.50
2023-02-11T22:31:23.873Z,6.50
2023-02-11T22:33:50.971Z,6.60
2023-02-11T22:36:26.022Z,6.60
2023-02-11T22:38:53.582Z,6.60
2023-02-11T22:41:21.039Z,6.40
2023-02-11T22:43:47.940Z,6.30
2023-02-11T22:46:16.925Z,6.20
2023-02-11T22:48:44.049Z,6.20
2023-02-11T22:51:19.766Z,6.50
2023-02-11T22:53:54.405Z,6.20
2023-02-11T22:56:22.300Z,6.50
2023-02-11T22:58:50.611Z,6.40
2023-02-11T23:01:18.116Z,6.30
2023-02-11T23:03:44.950Z,6.50
2023-02-11T23:06:12.625Z,6.30
2023-02-11T23:08:41.030Z,6.40
2023-02-11T23:11:14.205Z,6.30
2023-02-11T23:13:42.613Z,6.30
2023-02-11T23:16:12.277Z,6.50
2023-02-11T23:18:41.600Z,6.30
2023-02-11T23:21:12.672Z,6.10
2023-02-11T23:23:39.846Z,5.90
2023-02-11T23:26:10.535Z,6.20
2023-02-11T23:28:37.685Z,6.20
2023-02-11T23:31:18.330Z,6.10
2023-02-11T23:33:46.114Z,6.20
2023-02-11T23:36:13.833Z,6.30
2023-02-11T23:38:41.199Z,6.00
2023-02-11T23:41:08.190Z,6.20
2023-02-11T23:43:35.033Z,6.00
2023-02-11T23:46:02.026Z,6.10
2023-02-11T23:48:28.916Z,6.00
2023-02-11T23:50:55.979Z,6.00
2023-02-11T23:53:22.826Z,5.80
2023-02-11T23:55:49.766Z,6.00
2023-02-11T23:58:16.610Z,5.70
